createdAt,value
2023-01-08T00:02:15.423Z,3.61
2023-01-08T00:04:41.961Z,3.53
2023-01-08T00:07:08.541Z,3.34
2023-01-08T00:09:35.145Z,3.33
2023-01-08T00:12:01.888Z,3.22
2023-01-08T00:14:28.467Z,3.12
2023-01-08T00:16:55.200Z,3.19
2023-01-08T00:19:21.952Z,3.28
2023-01-08T00:21:48.452Z,3.29
2023-01-08T00:24:15.220Z,3.52
2023-01-08T00:26:41.861Z,3.49
2023-01-08T00:29:08.606Z,3.46
2023-01-08T00:31:35.234Z,3.57
2023-01-08T00:34:01.932Z,3.54
2023-01-08T00:36:28.494Z,3.58
2023-01-08T00:38:55.161Z,3.67
2023-01-08T00:41:22.436Z,3.78
2023-01-08T00:43:49.000Z,3.82
2023-01-08T00:46:15.741Z,3.94
2023-01-08T00:48:42.591Z,4.07
2023-01-08T00:51:09.723Z,4.14
2023-01-08T00:53:38.122Z,4.08
2023-01-08T00:56:07.954Z,3.91
2023-01-08T00:58:35.205Z,3.99
2023-01-08T01:01:02.795Z,3.91
2023-01-08T01:03:29.521Z,4.10
2023-01-08T01:06:03.632Z,4.05
2023-01-08T01:08:30.491Z,4.04
2023-01-08T01:10:57.094Z,4.10
2023-01-08T01:13:23.899Z,4.13
2023-01-08T01:16:01.341Z,4.00
2023-01-08T01:18:28.435Z,4.08
2023-01-08T01:20:55.246Z,4.20
2023-01-08T01:23:21.881Z,4.10
2023-01-08T01:25:48.497Z,4.24
2023-01-08T01:28:16.254Z,4.21
2023-01-08T01:30:42.875Z,4.27
2023-01-08T01:33:09.506Z,4.31
2023-01-08T01:35:36.217Z,4.27
2023-01-08T01:38:02.865Z,4.45
2023-01-08T01:40:30.175Z,4.41
2023-01-08T01:42:56.739Z,4.47
2023-01-08T01:45:27.954Z,4.43
2023-01-08T01:48:06.402Z,4.43
2023-01-08T01:50:39.930Z,4.37
2023-01-08T01:53:11.680Z,4.28
2023-01-08T01:55:40.556Z,4.39
2023-01-08T01:58:27.321Z,4.44
2023-01-08T02:00:56.359Z,4.48
2023-01-08T02:03:30.145Z,4.43
2023-01-08T02:06:15.637Z,4.32
2023-01-08T02:08:51.092Z,4.30
2023-01-08T02:11:26.687Z,4.18
2023-01-08T02:14:04.871Z,4.22
2023-01-08T02:16:41.924Z,4.27
2023-01-08T02:19:37.975Z,4.52
2023-01-08T02:22:10.706Z,4.58
2023-01-08T02:24:54.993Z,4.55
2023-01-08T02:27:25.600Z,4.57
2023-01-08T02:29:54.988Z,4.69
2023-01-08T02:32:28.677Z,4.62
2023-01-08T02:34:55.592Z,4.71
2023-01-08T02:37:22.187Z,4.80
2023-01-08T02:40:10.546Z,4.59
2023-01-08T02:42:51.099Z,4.59
2023-01-08T02:45:26.873Z,4.75
2023-01-08T02:48:34.116Z,4.86
2023-01-08T02:51:06.648Z,4.84
2023-01-08T02:53:37.682Z,4.89
2023-01-08T02:56:09.567Z,5.03
2023-01-08T02:58:38.121Z,4.98
2023-01-08T03:01:08.029Z,4.94
2023-01-08T03:03:36.703Z,5.00
2023-01-08T03:06:07.591Z,5.01
2023-01-08T03:08:37.608Z,5.07
2023-01-08T03:11:07.507Z,5.04
2023-01-08T03:13:40.007Z,5.05
2023-01-08T03:16:11.771Z,5.07
2023-01-08T03:18:44.508Z,5.08
2023-01-08T03:21:13.539Z,5.12
2023-01-08T03:23:41.764Z,5.16
2023-01-08T03:26:09.573Z,5.10
2023-01-08T03:28:47.115Z,5.13
2023-01-08T03:31:16.316Z,5.14
2023-01-08T03:33:45.679Z,5.19
2023-01-08T03:36:17.332Z,5.19
2023-01-08T03:38:51.048Z,5.13
2023-01-08T03:41:21.065Z,5.23
2023-01-08T03:43:47.771Z,5.41
2023-01-08T03:46:19.128Z,5.41
2023-01-08T03:48:47.021Z,5.27
2023-01-08T03:51:13.645Z,5.27
2023-01-08T03:53:40.248Z,5.26
2023-01-08T03:56:07.220Z,5.31
2023-01-08T03:58:33.939Z,5.31
2023-01-08T04:01:00.970Z,5.42
2023-01-08T04:03:27.763Z,5.47
2023-01-08T04:05:54.369Z,5.39
2023-01-08T04:08:21.036Z,5.30
2023-01-08T04:10:47.779Z,5.45
2023-01-08T04:13:14.485Z,5.44
2023-01-08T04:15:41.374Z,5.60
2023-01-08T04:18:08.021Z,5.80
2023-01-08T04:20:34.662Z,5.92
2023-01-08T04:23:01.206Z,5.97
2023-01-08T04:25:27.852Z,6.01
2023-01-08T04:27:54.405Z,6.08
2023-01-08T04:30:20.948Z,6.17
2023-01-08T04:32:47.693Z,6.26
2023-01-08T04:35:14.340Z,6.30
2023-01-08T04:37:40.934Z,6.25
2023-01-08T04:40:08.229Z,6.42
2023-01-08T04:42:34.795Z,6.44
2023-01-08T04:45:01.333Z,6.45
2023-01-08T04:47:27.960Z,6.34
2023-01-08T04:49:54.456Z,6.33
2023-01-08T04:52:20.982Z,6.35
2023-01-08T04:54:47.726Z,6.48
2023-01-08T04:57:14.247Z,6.37
2023-01-08T04:59:40.865Z,6.33
2023-01-08T05:02:07.735Z,6.26
2023-01-08T05:04:34.312Z,6.28
2023-01-08T05:07:00.978Z,6.34
2023-01-08T05:09:27.594Z,6.26
2023-01-08T05:11:54.153Z,6.28
2023-01-08T05:14:20.673Z,6.27
2023-01-08T05:16:47.649Z,6.30
2023-01-08T05:19:14.395Z,6.29
2023-01-08T05:21:40.976Z,6.34
2023-01-08T05:24:09.257Z,6.31
2023-01-08T05:26:36.124Z,6.42
2023-01-08T05:29:02.735Z,6.34
2023-01-08T05:31:29.768Z,6.37
2023-01-08T05:33:58.413Z,6.34
2023-01-08T05:36:24.977Z,6.37
2023-01-08T05:38:51.631Z,6.35
2023-01-08T05:41:18.263Z,6.32
2023-01-08T05:43:44.982Z,6.21
2023-01-08T05:46:11.742Z,6.28
2023-01-08T05:48:38.802Z,6.28
2023-01-08T05:51:05.988Z,6.30
2023-01-08T05:53:33.181Z,6.40
2023-01-08T05:56:06.282Z,6.31
2023-01-08T05:58:34.289Z,6.28
2023-01-08T06:01:09.432Z,6.14
2023-01-08T06:03:36.943Z,6.27
2023-01-08T06:06:05.611Z,6.32
2023-01-08T06:08:33.147Z,6.33
2023-01-08T06:11:01.304Z,6.32
2023-01-08T06:13:28.415Z,6.41
2023-01-08T06:15:55.413Z,6.46
2023-01-08T06:18:22.199Z,6.25
2023-01-08T06:20:48.869Z,6.28
2023-01-08T06:23:15.644Z,6.30
2023-01-08T06:25:42.438Z,6.30
2023-01-08T06:28:09.047Z,6.29
2023-01-08T06:30:35.753Z,6.21
2023-01-08T06:33:02.697Z,6.27
2023-01-08T06:35:29.303Z,6.17
2023-01-08T06:37:56.515Z,6.12
2023-01-08T06:40:23.925Z,6.05
2023-01-08T06:42:50.495Z,6.08
2023-01-08T06:45:17.334Z,6.06
2023-01-08T06:47:44.006Z,6.08
2023-01-08T06:50:11.566Z,6.11
2023-01-08T06:52:38.696Z,6.20
2023-01-08T06:55:06.354Z,6.18
2023-01-08T06:57:32.991Z,6.12
2023-01-08T06:59:59.578Z,6.17
2023-01-08T07:02:26.449Z,6.09
2023-01-08T07:04:53.126Z,5.97
2023-01-08T07:07:19.694Z,5.95
2023-01-08T07:09:46.531Z,5.88
2023-01-08T07:12:13.849Z,5.88
2023-01-08T07:14:41.162Z,5.86
2023-01-08T07:17:07.903Z,5.80
2023-01-08T07:19:34.859Z,5.75
2023-01-08T07:22:01.458Z,5.76
2023-01-08T07:24:28.209Z,5.73
2023-01-08T07:26:54.781Z,5.62
2023-01-08T07:29:21.450Z,5.86
2023-01-08T07:31:48.171Z,5.88
2023-01-08T07:34:15.423Z,5.88
2023-01-08T07:36:42.050Z,6.05
2023-01-08T07:39:08.645Z,6.11
2023-01-08T07:41:35.439Z,6.14
2023-01-08T07:44:02.039Z,6.14
2023-01-08T07:46:29.004Z,6.12
2023-01-08T07:48:57.116Z,6.06
2023-01-08T07:51:23.787Z,6.10
2023-01-08T07:53:51.366Z,6.25
2023-01-08T07:56:17.967Z,6.24
2023-01-08T07:58:44.607Z,6.36
2023-01-08T08:01:12.560Z,6.40
2023-01-08T08:03:39.898Z,6.53
2023-01-08T08:06:07.187Z,6.55
2023-01-08T08:08:34.168Z,6.61
2023-01-08T08:11:01.012Z,6.68
2023-01-08T08:13:27.963Z,6.70
2023-01-08T08:15:54.858Z,6.72
2023-01-08T08:18:21.533Z,6.74
2023-01-08T08:20:52.070Z,6.75
2023-01-08T08:23:18.850Z,6.79
2023-01-08T08:25:45.399Z,6.82
2023-01-08T08:28:12.612Z,6.66
2023-01-08T08:30:42.394Z,6.59
2023-01-08T08:33:09.797Z,6.66
2023-01-08T08:35:36.749Z,6.81
2023-01-08T08:38:04.621Z,6.74
2023-01-08T08:40:31.760Z,6.79
2023-01-08T08:43:03.821Z,6.90
2023-01-08T08:45:30.627Z,6.82
2023-01-08T08:47:57.320Z,6.93
2023-01-08T08:50:24.893Z,6.94
2023-01-08T08:52:51.662Z,7.03
2023-01-08T08:55:18.733Z,7.12
2023-01-08T08:57:46.752Z,7.08
2023-01-08T09:00:14.777Z,7.18
2023-01-08T09:02:41.563Z,7.14
2023-01-08T09:05:08.683Z,7.19
2023-01-08T09:07:35.632Z,7.36
2023-01-08T09:10:02.227Z,7.38
2023-01-08T09:12:28.864Z,7.55
2023-01-08T09:14:57.152Z,7.71
2023-01-08T09:17:25.747Z,7.84
2023-01-08T09:19:52.526Z,7.67
2023-01-08T09:22:19.664Z,7.60
2023-01-08T09:24:46.307Z,7.53
2023-01-08T09:27:13.652Z,7.33
2023-01-08T09:29:40.390Z,7.63
2023-01-08T09:32:07.646Z,7.28
2023-01-08T09:34:36.356Z,7.47
2023-01-08T09:37:04.341Z,7.45
2023-01-08T09:39:31.234Z,7.34
2023-01-08T09:42:01.044Z,7.39
2023-01-08T09:44:34.312Z,7.38
2023-01-08T09:47:01.506Z,7.57
2023-01-08T09:49:40.186Z,7.34
2023-01-08T09:52:09.805Z,7.25
2023-01-08T09:54:36.396Z,7.35
2023-01-08T09:57:03.572Z,7.47
2023-01-08T09:59:30.311Z,7.45
2023-01-08T10:01:57.072Z,7.63
2023-01-08T10:04:29.127Z,7.68
2023-01-08T10:07:12.384Z,7.69
2023-01-08T10:09:40.669Z,7.73
2023-01-08T10:12:07.749Z,7.58
2023-01-08T10:14:40.071Z,7.65
2023-01-08T10:17:22.159Z,7.68
2023-01-08T10:19:48.723Z,7.80
2023-01-08T10:22:18.507Z,7.84
2023-01-08T10:24:45.252Z,7.92
2023-01-08T10:27:21.524Z,7.95
2023-01-08T10:29:50.983Z,7.81
2023-01-08T10:32:30.475Z,8.12
2023-01-08T10:34:59.440Z,8.02
2023-01-08T10:37:32.508Z,8.02
2023-01-08T10:40:37.881Z,7.98
2023-01-08T10:43:29.197Z,7.84
2023-01-08T10:46:00.190Z,7.92
2023-01-08T10:48:51.201Z,8.11
2023-01-08T10:51:24.311Z,8.32
2023-01-08T10:53:55.341Z,8.42
2023-01-08T10:56:28.166Z,8.44
2023-01-08T10:58:55.596Z,8.43
2023-01-08T11:01:31.545Z,8.62
2023-01-08T11:04:05.043Z,8.68
2023-01-08T11:06:48.067Z,8.47
2023-01-08T11:09:27.088Z,8.96
2023-01-08T11:11:54.112Z,8.88
2023-01-08T11:14:31.946Z,8.70
2023-01-08T11:16:59.661Z,8.92
2023-01-08T11:19:32.102Z,8.99
2023-01-08T11:22:09.131Z,8.68
2023-01-08T11:24:37.481Z,8.95
2023-01-08T11:27:13.307Z,8.82
2023-01-08T11:30:06.338Z,8.56
2023-01-08T11:32:45.259Z,8.57
2023-01-08T11:35:22.376Z,8.62
2023-01-08T11:38:00.088Z,8.62
2023-01-08T11:40:54.222Z,8.71
2023-01-08T11:43:42.175Z,9.14
2023-01-08T11:46:23.931Z,9.34
2023-01-08T11:49:01.800Z,9.51
2023-01-08T11:51:43.590Z,9.69
2023-01-08T11:54:48.831Z,9.40
2023-01-08T11:57:32.957Z,9.05
2023-01-08T12:00:02.604Z,9.07
2023-01-08T12:02:56.142Z,9.02
2023-01-08T12:05:38.719Z,8.75
2023-01-08T12:08:17.741Z,8.79
2023-01-08T12:10:44.538Z,8.89
2023-01-08T12:13:29.654Z,8.92
2023-01-08T12:16:11.604Z,9.08
2023-01-08T12:19:03.308Z,9.25
2023-01-08T12:21:33.871Z,9.35
2023-01-08T12:24:03.413Z,9.32
2023-01-08T12:26:50.970Z,9.46
2023-01-08T12:29:40.180Z,9.55
2023-01-08T12:32:29.134Z,9.29
2023-01-08T12:35:08.745Z,9.47
2023-01-08T12:37:52.054Z,9.67
2023-01-08T12:40:32.216Z,9.50
2023-01-08T12:43:05.655Z,9.77
2023-01-08T12:45:40.787Z,9.93
2023-01-08T12:48:11.591Z,9.49
2023-01-08T12:50:44.168Z,9.24
2023-01-08T12:53:43.593Z,9.29
2023-01-08T12:56:20.867Z,9.23
2023-01-08T12:59:04.491Z,9.23
2023-01-08T13:01:53.365Z,9.14
2023-01-08T13:04:21.091Z,9.07
2023-01-08T13:07:05.060Z,9.02
2023-01-08T13:09:32.846Z,8.76
2023-01-08T13:12:00.886Z,8.84
2023-01-08T13:14:28.003Z,9.06
2023-01-08T13:17:06.895Z,8.44
2023-01-08T13:19:44.791Z,8.67
2023-01-08T13:22:30.192Z,8.21
2023-01-08T13:25:15.083Z,9.09
2023-01-08T13:27:42.252Z,8.93
2023-01-08T13:30:42.421Z,8.61
2023-01-08T13:33:40.054Z,8.77
2023-01-08T13:36:12.731Z,9.18
2023-01-08T13:38:40.697Z,8.85
2023-01-08T13:41:26.100Z,9.15
2023-01-08T13:44:00.819Z,9.26
2023-01-08T13:46:28.624Z,9.14
2023-01-08T13:49:08.179Z,9.49
2023-01-08T13:51:46.308Z,9.78
2023-01-08T13:54:13.029Z,9.49
2023-01-08T13:56:45.777Z,9.68
2023-01-08T13:59:41.998Z,9.78
2023-01-08T14:02:27.638Z,9.55
2023-01-08T14:04:55.484Z,9.37
2023-01-08T14:07:23.775Z,9.37
2023-01-08T14:09:50.808Z,9.12
2023-01-08T14:12:20.622Z,9.09
2023-01-08T14:14:51.990Z,8.88
2023-01-08T14:17:21.453Z,8.95
2023-01-08T14:19:48.438Z,9.20
2023-01-08T14:22:22.563Z,9.30
2023-01-08T14:24:55.822Z,9.27
2023-01-08T14:27:28.107Z,9.24
2023-01-08T14:29:55.308Z,9.19
2023-01-08T14:32:24.580Z,9.33
2023-01-08T14:34:53.091Z,9.40
2023-01-08T14:37:20.003Z,9.13
2023-01-08T14:39:54.500Z,8.94
2023-01-08T14:42:42.405Z,8.83
2023-01-08T14:45:18.796Z,8.77
2023-01-08T14:47:49.559Z,8.48
2023-01-08T14:50:24.387Z,8.71
2023-01-08T14:52:53.225Z,8.70
2023-01-08T14:55:21.139Z,8.73
2023-01-08T14:57:51.633Z,8.79
2023-01-08T15:00:24.577Z,8.85
2023-01-08T15:02:51.249Z,8.58
2023-01-08T15:05:31.553Z,8.60
2023-01-08T15:08:19.798Z,8.72
2023-01-08T15:10:46.575Z,8.71
2023-01-08T15:13:24.782Z,8.71
2023-01-08T15:16:18.360Z,8.77
2023-01-08T15:18:48.064Z,8.73
2023-01-08T15:21:20.200Z,8.47
2023-01-08T15:23:52.811Z,8.50
2023-01-08T15:26:19.743Z,8.39
2023-01-08T15:28:53.901Z,8.36
2023-01-08T15:31:25.591Z,8.43
2023-01-08T15:33:52.857Z,8.49
2023-01-08T15:36:21.503Z,8.38
2023-01-08T15:38:48.999Z,8.24
2023-01-08T15:41:39.472Z,8.25
2023-01-08T15:44:06.552Z,8.08
2023-01-08T15:46:33.298Z,8.11
2023-01-08T15:49:00.145Z,8.24
2023-01-08T15:51:29.953Z,8.10
2023-01-08T15:53:56.597Z,8.17
2023-01-08T15:56:23.373Z,8.20
2023-01-08T15:58:49.955Z,8.10
2023-01-08T16:01:16.686Z,7.86
2023-01-08T16:03:44.969Z,7.95
2023-01-08T16:06:11.602Z,7.94
2023-01-08T16:08:38.196Z,7.92
2023-01-08T16:11:05.113Z,7.82
2023-01-08T16:13:31.699Z,7.84
2023-01-08T16:15:58.351Z,7.85
2023-01-08T16:18:24.953Z,7.99
2023-01-08T16:21:00.289Z,7.88
2023-01-08T16:23:27.269Z,7.71
2023-01-08T16:25:53.848Z,7.54
2023-01-08T16:28:20.420Z,7.74
2023-01-08T16:30:47.383Z,7.78
2023-01-08T16:33:13.954Z,7.80
2023-01-08T16:35:40.819Z,7.61
2023-01-08T16:38:08.506Z,7.57
2023-01-08T16:40:36.437Z,7.67
2023-01-08T16:43:03.016Z,7.74
2023-01-08T16:45:29.774Z,7.40
2023-01-08T16:47:56.321Z,7.47
2023-01-08T16:50:22.907Z,7.68
2023-01-08T16:52:51.015Z,7.58
2023-01-08T16:55:17.580Z,7.49
2023-01-08T16:57:44.179Z,7.51
2023-01-08T17:00:11.622Z,7.70
2023-01-08T17:02:39.026Z,7.69
2023-01-08T17:05:06.208Z,7.79
2023-01-08T17:07:32.827Z,7.82
2023-01-08T17:09:59.366Z,7.68
2023-01-08T17:12:26.308Z,7.58
2023-01-08T17:14:53.019Z,7.68
2023-01-08T17:17:19.538Z,7.80
2023-01-08T17:19:46.441Z,7.87
2023-01-08T17:22:13.200Z,7.79
2023-01-08T17:24:39.941Z,7.72
2023-01-08T17:27:06.587Z,7.69
2023-01-08T17:29:33.290Z,7.44
2023-01-08T17:31:59.959Z,7.44
2023-01-08T17:34:26.583Z,7.49
2023-01-08T17:36:53.385Z,7.54
2023-01-08T17:39:19.955Z,7.68
2023-01-08T17:42:05.170Z,7.40
2023-01-08T17:44:31.723Z,7.30
2023-01-08T17:46:58.317Z,7.31
2023-01-08T17:49:24.963Z,7.46
2023-01-08T17:51:53.511Z,7.37
2023-01-08T17:54:21.098Z,7.37
2023-01-08T17:56:49.209Z,7.43
2023-01-08T17:59:18.049Z,7.41
2023-01-08T18:01:45.976Z,7.40
2023-01-08T18:04:13.770Z,7.25
2023-01-08T18:06:41.062Z,7.50
2023-01-08T18:09:09.641Z,7.47
2023-01-08T18:11:36.722Z,7.64
2023-01-08T18:14:03.817Z,7.77
2023-01-08T18:16:32.190Z,7.47
2023-01-08T18:19:00.173Z,7.61
2023-01-08T18:21:27.992Z,7.72
2023-01-08T18:23:54.773Z,7.75
2023-01-08T18:26:21.942Z,7.60
2023-01-08T18:28:49.103Z,7.47
2023-01-08T18:31:15.843Z,7.50
2023-01-08T18:33:42.869Z,7.50
2023-01-08T18:36:12.350Z,7.60
2023-01-08T18:38:41.534Z,7.51
2023-01-08T18:41:09.289Z,7.65
2023-01-08T18:43:36.270Z,7.62
2023-01-08T18:46:05.651Z,7.64
2023-01-08T18:48:33.553Z,7.55
2023-01-08T18:51:07.471Z,7.58
2023-01-08T18:53:35.049Z,7.54
2023-01-08T18:56:02.136Z,7.49
2023-01-08T18:58:29.603Z,7.75
2023-01-08T19:01:02.133Z,7.52
2023-01-08T19:03:28.694Z,7.41
2023-01-08T19:05:55.197Z,7.33
2023-01-08T19:08:21.942Z,7.41
2023-01-08T19:10:50.164Z,7.55
2023-01-08T19:13:16.803Z,7.63
2023-01-08T19:15:43.409Z,7.57
2023-01-08T19:18:09.950Z,7.66
2023-01-08T19:20:41.525Z,7.55
2023-01-08T19:23:08.523Z,7.74
2023-01-08T19:25:35.227Z,7.45
2023-01-08T19:28:01.821Z,7.36
2023-01-08T19:30:30.783Z,7.79
2023-01-08T19:32:57.484Z,7.38
2023-01-08T19:35:24.178Z,7.26
2023-01-08T19:37:50.735Z,7.78
2023-01-08T19:40:17.858Z,7.43
2023-01-08T19:43:03.163Z,7.55
2023-01-08T19:45:29.781Z,7.65
2023-01-08T19:47:56.642Z,7.44
2023-01-08T19:50:23.779Z,7.48
2023-01-08T19:52:52.836Z,7.43
2023-01-08T19:55:22.116Z,7.47
2023-01-08T19:57:50.461Z,7.44
2023-01-08T20:00:18.048Z,7.22
2023-01-08T20:02:44.656Z,7.38
2023-01-08T20:05:11.214Z,7.41
2023-01-08T20:07:37.813Z,7.25
2023-01-08T20:10:05.082Z,7.34
2023-01-08T20:12:31.759Z,7.22
2023-01-08T20:14:58.414Z,7.25
2023-01-08T20:17:25.351Z,7.20
2023-01-08T20:19:52.911Z,7.21
2023-01-08T20:22:19.800Z,7.38
2023-01-08T20:24:47.091Z,7.38
2023-01-08T20:27:13.922Z,7.21
2023-01-08T20:29:40.565Z,7.23
2023-01-08T20:32:07.291Z,7.28
2023-01-08T20:34:34.064Z,7.41
2023-01-08T20:37:00.766Z,7.26
2023-01-08T20:39:27.480Z,7.19
2023-01-08T20:42:03.371Z,7.41
2023-01-08T20:44:30.879Z,7.47
2023-01-08T20:46:57.562Z,7.34
2023-01-08T20:49:26.555Z,7.43
2023-01-08T20:51:59.098Z,7.41
2023-01-08T20:54:27.369Z,7.08
2023-01-08T20:56:55.925Z,7.34
2023-01-08T20:59:24.150Z,7.19
2023-01-08T21:01:51.495Z,7.28
2023-01-08T21:04:18.621Z,7.23
2023-01-08T21:06:45.334Z,7.27
2023-01-08T21:09:12.287Z,7.26
2023-01-08T21:11:40.317Z,7.42
2023-01-08T21:14:08.134Z,7.41
2023-01-08T21:16:35.642Z,7.31
2023-01-08T21:19:03.325Z,7.32
2023-01-08T21:21:33.369Z,7.27
2023-01-08T21:24:04.779Z,7.31
2023-01-08T21:26:33.988Z,7.40
2023-01-08T21:29:03.089Z,7.38
2023-01-08T21:31:30.214Z,7.29
2023-01-08T21:33:58.744Z,7.48
2023-01-08T21:36:27.863Z,7.45
2023-01-08T21:38:56.939Z,7.40
2023-01-08T21:41:44.564Z,7.44
2023-01-08T21:44:33.206Z,7.60
2023-01-08T21:47:01.111Z,7.53
2023-01-08T21:49:28.544Z,7.50
2023-01-08T21:52:13.835Z,7.65
2023-01-08T21:54:40.624Z,7.40
2023-01-08T21:57:08.300Z,7.41
2023-01-08T21:59:35.606Z,7.45
2023-01-08T22:02:03.479Z,7.35
2023-01-08T22:04:30.168Z,7.46
2023-01-08T22:06:56.930Z,7.39
2023-01-08T22:09:23.494Z,7.34
2023-01-08T22:11:50.119Z,7.48
2023-01-08T22:14:17.219Z,7.46
2023-01-08T22:16:43.799Z,7.39
2023-01-08T22:19:10.765Z,7.32
2023-01-08T22:21:38.958Z,7.36
2023-01-08T22:24:05.993Z,7.32
2023-01-08T22:26:35.105Z,7.37
2023-01-08T22:29:03.788Z,7.58
2023-01-08T22:31:30.371Z,7.46
2023-01-08T22:33:57.796Z,7.51
2023-01-08T22:36:25.244Z,7.45
2023-01-08T22:38:51.857Z,7.47
2023-01-08T22:41:23.992Z,7.55
2023-01-08T22:43:58.510Z,7.48
2023-01-08T22:46:25.623Z,7.58
2023-01-08T22:48:52.304Z,7.48
2023-01-08T22:51:28.843Z,7.63
2023-01-08T22:53:56.725Z,7.49
2023-01-08T22:56:23.894Z,7.47
2023-01-08T22:58:50.849Z,7.43
2023-01-08T23:01:24.295Z,7.48
2023-01-08T23:03:52.416Z,7.45
2023-01-08T23:06:20.981Z,7.52
2023-01-08T23:08:47.988Z,7.51
2023-01-08T23:11:17.440Z,7.52
2023-01-08T23:13:44.363Z,7.49
2023-01-08T23:16:13.518Z,7.50
2023-01-08T23:18:40.933Z,7.86
2023-01-08T23:21:13.229Z,7.73
2023-01-08T23:23:39.959Z,7.56
2023-01-08T23:26:08.840Z,7.57
2023-01-08T23:28:35.523Z,7.60
2023-01-08T23:31:06.504Z,7.52
2023-01-08T23:33:33.278Z,7.55
2023-01-08T23:35:59.808Z,7.44
2023-01-08T23:38:26.588Z,7.65
2023-01-08T23:40:53.360Z,7.52
2023-01-08T23:43:19.951Z,7.56
2023-01-08T23:45:46.595Z,7.58
2023-01-08T23:48:13.216Z,7.52
2023-01-08T23:50:39.822Z,7.44
2023-01-08T23:53:06.502Z,7.49
2023-01-08T23:55:33.587Z,7.51
2023-01-08T23:58:00.343Z,7.51
